createdAt,value
2023-03-29T00:00:22.197Z,2.30
2023-03-29T00:02:50.424Z,2.33
2023-03-29T00:05:19.945Z,2.03
2023-03-29T00:07:48.140Z,1.93
2023-03-29T00:10:17.405Z,2.00
2023-03-29T00:12:46.916Z,2.20
2023-03-29T00:15:15.143Z,2.00
2023-03-29T00:17:43.089Z,2.87
2023-03-29T00:20:12.396Z,2.03
2023-03-29T00:22:42.140Z,1.93
2023-03-29T00:25:10.787Z,1.97
2023-03-29T00:27:40.584Z,1.73
2023-03-29T00:30:10.258Z,2.17
2023-03-29T00:32:38.377Z,1.93
2023-03-29T00:35:07.707Z,1.87
2023-03-29T00:37:36.152Z,1.83
2023-03-29T00:40:07.943Z,1.87
2023-03-29T00:42:35.894Z,1.90
2023-03-29T00:45:08.111Z,1.77
2023-03-29T00:47:40.222Z,1.80
2023-03-29T00:50:14.369Z,1.57
2023-03-29T00:52:44.140Z,2.13
2023-03-29T00:55:14.377Z,1.80
2023-03-29T00:57:46.768Z,2.10
2023-03-29T01:00:20.972Z,1.83
2023-03-29T01:02:54.474Z,2.20
2023-03-29T01:05:27.119Z,1.90
2023-03-29T01:07:58.468Z,1.90
2023-03-29T01:10:30.520Z,1.80
2023-03-29T01:13:04.895Z,2.10
2023-03-29T01:15:34.361Z,1.80
2023-03-29T01:18:02.849Z,1.90
2023-03-29T01:20:43.474Z,2.47
2023-03-29T01:23:26.938Z,2.10
2023-03-29T01:25:59.185Z,2.10
2023-03-29T01:28:31.383Z,2.07
2023-03-29T01:31:03.806Z,2.00
2023-03-29T01:33:34.877Z,1.77
2023-03-29T01:36:09.079Z,1.97
2023-03-29T01:38:42.811Z,2.00
2023-03-29T01:41:12.069Z,1.97
2023-03-29T01:43:45.024Z,2.23
2023-03-29T01:46:16.617Z,1.93
2023-03-29T01:48:48.147Z,2.10
2023-03-29T01:51:18.064Z,2.43
2023-03-29T01:53:48.766Z,2.10
2023-03-29T01:56:19.774Z,1.97
2023-03-29T01:58:54.246Z,2.57
2023-03-29T02:01:26.061Z,2.40
2023-03-29T02:03:59.345Z,2.40
2023-03-29T02:06:28.292Z,2.20
2023-03-29T02:08:56.736Z,2.30
2023-03-29T02:11:25.941Z,3.33
2023-03-29T02:13:56.541Z,2.00
2023-03-29T02:16:24.553Z,2.17
2023-03-29T02:18:54.188Z,2.10
2023-03-29T02:21:26.787Z,1.90
2023-03-29T02:23:55.519Z,2.53
2023-03-29T02:26:23.985Z,1.80
2023-03-29T02:28:52.823Z,1.77
2023-03-29T02:31:25.257Z,1.90
2023-03-29T02:33:57.356Z,2.50
2023-03-29T02:36:30.883Z,2.10
2023-03-29T02:38:59.808Z,2.10
2023-03-29T02:41:28.214Z,2.13
2023-03-29T02:43:57.125Z,1.80
2023-03-29T02:46:26.756Z,1.77
2023-03-29T02:48:55.767Z,2.00
2023-03-29T02:51:25.837Z,2.00
2023-03-29T02:54:03.139Z,2.30
2023-03-29T02:56:31.634Z,2.00
2023-03-29T02:58:59.513Z,2.23
2023-03-29T03:01:29.128Z,1.87
2023-03-29T03:03:57.795Z,2.03
2023-03-29T03:06:25.859Z,2.10
2023-03-29T03:08:53.746Z,2.10
2023-03-29T03:11:21.735Z,2.17
2023-03-29T03:13:49.618Z,2.30
2023-03-29T03:16:18.005Z,1.97
2023-03-29T03:18:48.708Z,2.20
2023-03-29T03:21:16.666Z,2.20
2023-03-29T03:23:45.496Z,2.23
2023-03-29T03:26:13.892Z,2.30
2023-03-29T03:28:43.321Z,2.77
2023-03-29T03:31:21.485Z,2.30
2023-03-29T03:34:13.011Z,2.97
2023-03-29T03:36:56.511Z,2.53
2023-03-29T03:39:24.423Z,2.53
2023-03-29T03:41:52.374Z,2.50
2023-03-29T03:44:20.683Z,2.90
2023-03-29T03:46:56.978Z,2.77
2023-03-29T03:49:26.325Z,2.63
2023-03-29T03:51:54.362Z,2.83
2023-03-29T03:54:22.465Z,2.70
2023-03-29T03:57:19.282Z,3.07
2023-03-29T03:59:52.890Z,2.70
2023-03-29T04:02:28.265Z,2.87
2023-03-29T04:04:57.809Z,2.40
2023-03-29T04:07:32.663Z,2.67
2023-03-29T04:10:18.972Z,2.87
2023-03-29T04:12:53.609Z,2.10
2023-03-29T04:15:22.125Z,2.53
2023-03-29T04:17:57.954Z,2.37
2023-03-29T04:20:36.551Z,2.03
2023-03-29T04:23:05.138Z,2.33
2023-03-29T04:25:33.486Z,2.17
2023-03-29T04:28:36.581Z,2.23
2023-03-29T04:31:12.950Z,2.37
2023-03-29T04:34:00.512Z,2.30
2023-03-29T04:36:30.991Z,2.43
2023-03-29T04:39:01.252Z,2.60
2023-03-29T04:41:29.762Z,2.90
2023-03-29T04:44:00.634Z,2.57
2023-03-29T04:46:32.503Z,2.87
2023-03-29T04:49:20.160Z,2.77
2023-03-29T04:51:53.262Z,2.40
2023-03-29T04:54:24.738Z,2.97
2023-03-29T04:57:13.156Z,2.60
2023-03-29T04:59:59.751Z,2.40
2023-03-29T05:02:57.841Z,2.77
2023-03-29T05:05:27.098Z,2.10
2023-03-29T05:07:56.422Z,2.53
2023-03-29T05:10:30.574Z,2.63
2023-03-29T05:12:59.037Z,2.60
2023-03-29T05:15:27.948Z,2.70
2023-03-29T05:17:56.130Z,2.20
2023-03-29T05:20:25.004Z,2.87
2023-03-29T05:22:53.268Z,2.27
2023-03-29T05:25:49.103Z,2.60
2023-03-29T05:28:17.198Z,2.70
2023-03-29T05:30:46.225Z,2.77
2023-03-29T05:33:21.383Z,2.47
2023-03-29T05:35:49.342Z,2.63
2023-03-29T05:38:17.890Z,2.87
2023-03-29T05:40:45.796Z,3.23
2023-03-29T05:43:28.464Z,2.90
2023-03-29T05:45:57.197Z,2.73
2023-03-29T05:48:26.966Z,3.13
2023-03-29T05:50:57.813Z,3.67
2023-03-29T05:53:27.146Z,4.00
2023-03-29T05:55:55.324Z,4.50
2023-03-29T05:58:26.476Z,4.50
2023-03-29T06:00:56.250Z,4.07
2023-03-29T06:03:47.336Z,3.67
2023-03-29T06:06:16.542Z,3.80
2023-03-29T06:08:45.300Z,2.90
2023-03-29T06:11:35.943Z,3.80
2023-03-29T06:14:24.901Z,3.20
2023-03-29T06:17:04.305Z,3.20
2023-03-29T06:19:32.439Z,3.40
2023-03-29T06:22:00.990Z,3.57
2023-03-29T06:24:33.783Z,3.50
2023-03-29T06:27:07.441Z,3.43
2023-03-29T06:29:36.068Z,3.50
2023-03-29T06:32:06.447Z,3.97
2023-03-29T06:35:07.300Z,3.70
2023-03-29T06:37:41.435Z,3.33
2023-03-29T06:40:21.210Z,3.40
2023-03-29T06:42:51.354Z,3.60
2023-03-29T06:45:29.938Z,3.73
2023-03-29T06:48:03.309Z,3.13
2023-03-29T06:50:33.077Z,4.07
2023-03-29T06:53:20.257Z,4.00
2023-03-29T06:55:57.195Z,3.60
2023-03-29T06:58:45.787Z,3.63
2023-03-29T07:01:38.088Z,3.17
2023-03-29T07:04:17.820Z,3.80
2023-03-29T07:07:08.325Z,3.30
2023-03-29T07:09:40.230Z,3.20
2023-03-29T07:12:28.820Z,3.40
2023-03-29T07:15:01.536Z,3.90
2023-03-29T07:17:53.123Z,3.43
2023-03-29T07:20:23.230Z,3.50
2023-03-29T07:23:02.198Z,3.57
2023-03-29T07:25:32.325Z,4.40
2023-03-29T07:28:02.029Z,4.10
2023-03-29T07:30:33.518Z,3.43
2023-03-29T07:33:12.665Z,4.00
2023-03-29T07:35:48.843Z,3.90
2023-03-29T07:38:16.833Z,4.07
2023-03-29T07:40:50.023Z,3.60
2023-03-29T07:43:44.119Z,3.47
2023-03-29T07:46:14.223Z,3.60
2023-03-29T07:48:42.326Z,3.80
2023-03-29T07:51:13.571Z,3.60
2023-03-29T07:53:45.561Z,3.47
2023-03-29T07:56:32.287Z,3.40
2023-03-29T07:59:19.626Z,3.40
2023-03-29T08:01:55.277Z,3.23
2023-03-29T08:04:40.143Z,3.37
2023-03-29T08:07:21.040Z,3.37
2023-03-29T08:09:54.734Z,3.57
2023-03-29T08:12:31.182Z,3.47
2023-03-29T08:15:00.140Z,3.23
2023-03-29T08:17:32.950Z,3.20
2023-03-29T08:20:01.184Z,3.40
2023-03-29T08:22:30.590Z,3.43
2023-03-29T08:25:17.059Z,3.13
2023-03-29T08:27:49.454Z,3.70
2023-03-29T08:30:26.157Z,3.40
2023-03-29T08:32:55.307Z,3.37
2023-03-29T08:35:24.031Z,3.60
2023-03-29T08:38:05.445Z,3.10
2023-03-29T08:40:34.398Z,3.73
2023-03-29T08:43:32.745Z,3.30
2023-03-29T08:46:35.124Z,3.20
2023-03-29T08:49:18.073Z,3.40
2023-03-29T08:51:48.045Z,3.53
2023-03-29T08:54:20.518Z,3.63
2023-03-29T08:57:23.994Z,4.00
2023-03-29T09:00:00.222Z,3.40
2023-03-29T09:02:32.414Z,3.53
2023-03-29T09:05:09.038Z,3.80
2023-03-29T09:07:46.194Z,3.50
2023-03-29T09:10:19.262Z,3.87
2023-03-29T09:13:01.285Z,3.10
2023-03-29T09:15:31.855Z,3.70
2023-03-29T09:18:13.143Z,3.67
2023-03-29T09:20:48.685Z,3.50
2023-03-29T09:23:29.423Z,3.70
2023-03-29T09:26:24.389Z,3.40
2023-03-29T09:29:35.166Z,3.00
2023-03-29T09:32:06.627Z,3.57
2023-03-29T09:34:39.706Z,3.57
2023-03-29T09:37:21.382Z,4.77
2023-03-29T09:39:50.069Z,3.80
2023-03-29T09:42:21.776Z,3.40
2023-03-29T09:44:55.158Z,4.40
2023-03-29T09:47:33.107Z,3.90
2023-03-29T09:50:16.605Z,3.37
2023-03-29T09:52:51.500Z,3.60
2023-03-29T09:55:28.284Z,3.20
2023-03-29T09:58:13.734Z,3.50
2023-03-29T10:00:45.893Z,3.70
2023-03-29T10:03:19.591Z,3.50
2023-03-29T10:05:55.037Z,3.50
2023-03-29T10:08:28.109Z,3.50
2023-03-29T10:10:59.540Z,3.67
2023-03-29T10:13:31.061Z,3.30
2023-03-29T10:16:03.553Z,3.70
2023-03-29T10:18:32.395Z,3.43
2023-03-29T10:21:03.629Z,3.90
2023-03-29T10:23:33.935Z,3.70
2023-03-29T10:26:04.210Z,2.90
2023-03-29T10:28:36.397Z,3.70
2023-03-29T10:31:08.101Z,3.60
2023-03-29T10:33:37.380Z,3.40
2023-03-29T10:36:11.003Z,3.63
2023-03-29T10:38:39.506Z,3.60
2023-03-29T10:41:10.295Z,3.67
2023-03-29T10:43:41.008Z,3.50
2023-03-29T10:46:13.233Z,3.93
2023-03-29T10:48:47.039Z,3.37
2023-03-29T10:51:16.188Z,2.93
2023-03-29T10:53:44.205Z,3.80
2023-03-29T10:56:40.182Z,3.10
2023-03-29T10:59:23.133Z,3.37
2023-03-29T11:02:13.152Z,3.30
2023-03-29T11:04:43.955Z,2.80
2023-03-29T11:07:27.194Z,3.10
2023-03-29T11:10:04.828Z,3.00
2023-03-29T11:12:37.602Z,2.80
2023-03-29T11:15:21.777Z,3.23
2023-03-29T11:17:59.708Z,2.97
2023-03-29T11:20:34.840Z,2.90
2023-03-29T11:23:13.642Z,3.07
2023-03-29T11:25:54.486Z,3.03
2023-03-29T11:28:28.606Z,3.27
2023-03-29T11:31:03.348Z,2.70
2023-03-29T11:33:38.704Z,3.13
2023-03-29T11:36:10.337Z,2.73
2023-03-29T11:38:42.291Z,2.63
2023-03-29T11:41:16.188Z,2.93
2023-03-29T11:43:47.747Z,3.20
2023-03-29T11:46:20.256Z,3.20
2023-03-29T11:48:51.271Z,2.87
2023-03-29T11:51:22.637Z,3.30
2023-03-29T11:53:57.232Z,3.00
2023-03-29T11:56:31.548Z,2.90
2023-03-29T11:59:04.697Z,2.70
2023-03-29T12:01:35.826Z,2.87
2023-03-29T12:04:07.767Z,3.30
2023-03-29T12:06:41.885Z,3.00
2023-03-29T12:09:16.721Z,3.07
2023-03-29T12:11:51.908Z,2.47
2023-03-29T12:14:23.707Z,2.97
2023-03-29T12:16:58.669Z,3.13
2023-03-29T12:19:31.796Z,2.87
2023-03-29T12:22:00.625Z,2.83
2023-03-29T12:24:31.816Z,3.07
2023-03-29T12:27:09.502Z,2.60
2023-03-29T12:29:53.005Z,2.50
2023-03-29T12:32:37.148Z,3.13
2023-03-29T12:35:31.924Z,2.90
2023-03-29T12:38:32.218Z,3.30
2023-03-29T12:41:20.859Z,3.33
2023-03-29T12:44:03.580Z,2.70
2023-03-29T12:46:42.996Z,3.30
2023-03-29T12:49:14.294Z,3.00
2023-03-29T12:51:43.383Z,2.70
2023-03-29T12:54:15.907Z,2.60
2023-03-29T12:56:56.323Z,3.33
2023-03-29T12:59:35.591Z,3.20
2023-03-29T13:02:20.160Z,3.00
2023-03-29T13:04:52.689Z,3.37
2023-03-29T13:07:31.241Z,3.40
2023-03-29T13:09:59.950Z,3.50
2023-03-29T13:12:32.193Z,2.80
2023-03-29T13:15:02.851Z,3.60
2023-03-29T13:17:36.347Z,3.00
2023-03-29T13:20:15.544Z,3.20
2023-03-29T13:22:52.467Z,3.00
2023-03-29T13:25:31.079Z,2.80
2023-03-29T13:28:02.372Z,3.50
2023-03-29T13:30:43.769Z,2.80
2023-03-29T13:33:18.161Z,3.00
2023-03-29T13:35:53.029Z,3.07
2023-03-29T13:38:22.560Z,2.83
2023-03-29T13:41:02.264Z,2.60
2023-03-29T13:43:38.786Z,2.83
2023-03-29T13:46:17.757Z,2.50
2023-03-29T13:49:02.017Z,2.10
2023-03-29T13:51:41.019Z,2.87
2023-03-29T13:54:16.242Z,2.87
2023-03-29T13:56:56.158Z,3.07
2023-03-29T13:59:30.126Z,2.73
2023-03-29T14:02:00.541Z,2.60
2023-03-29T14:04:31.392Z,2.70
2023-03-29T14:07:00.994Z,2.90
2023-03-29T14:09:31.037Z,3.23
2023-03-29T14:11:59.767Z,3.60
2023-03-29T14:14:28.680Z,2.80
2023-03-29T14:16:57.098Z,2.33
2023-03-29T14:19:31.206Z,2.40
2023-03-29T14:22:01.638Z,2.83
2023-03-29T14:24:39.305Z,2.63
2023-03-29T14:27:10.226Z,3.07
2023-03-29T14:29:38.443Z,2.47
2023-03-29T14:32:11.310Z,2.57
2023-03-29T14:34:41.951Z,2.70
2023-03-29T14:37:13.077Z,2.77
2023-03-29T14:39:42.142Z,2.50
2023-03-29T14:42:15.750Z,2.97
2023-03-29T14:44:44.333Z,2.40
2023-03-29T14:47:18.036Z,2.50
2023-03-29T14:49:46.961Z,2.70
2023-03-29T14:52:16.553Z,2.33
2023-03-29T14:54:48.104Z,2.40
2023-03-29T14:57:18.584Z,2.60
2023-03-29T14:59:54.179Z,2.60
2023-03-29T15:02:27.166Z,2.20
2023-03-29T15:04:59.497Z,2.20
2023-03-29T15:07:29.416Z,2.07
2023-03-29T15:09:58.632Z,2.67
2023-03-29T15:12:29.327Z,2.20
2023-03-29T15:14:57.331Z,2.10
2023-03-29T15:17:42.658Z,2.03
2023-03-29T15:20:21.432Z,1.80
2023-03-29T15:22:59.398Z,1.87
2023-03-29T15:25:28.622Z,2.13
2023-03-29T15:27:59.039Z,1.87
2023-03-29T15:30:36.917Z,2.23
2023-03-29T15:33:16.430Z,1.83
2023-03-29T15:35:47.840Z,2.60
2023-03-29T15:38:17.182Z,2.50
2023-03-29T15:40:45.151Z,2.10
2023-03-29T15:43:13.569Z,2.03
2023-03-29T15:45:41.818Z,2.60
2023-03-29T15:48:16.186Z,2.13
2023-03-29T15:50:44.638Z,2.23
2023-03-29T15:53:15.499Z,2.30
2023-03-29T15:55:47.620Z,2.30
2023-03-29T15:58:17.323Z,2.00
2023-03-29T16:00:49.605Z,2.20
2023-03-29T16:03:17.906Z,2.40
2023-03-29T16:05:46.855Z,2.17
2023-03-29T16:08:15.245Z,2.67
2023-03-29T16:10:43.836Z,2.50
2023-03-29T16:13:14.605Z,2.37
2023-03-29T16:15:43.165Z,2.43
2023-03-29T16:18:13.501Z,2.30
2023-03-29T16:20:43.144Z,3.17
2023-03-29T16:23:11.542Z,2.43
2023-03-29T16:25:40.731Z,2.50
2023-03-29T16:28:10.083Z,2.40
2023-03-29T16:30:39.723Z,2.27
2023-03-29T16:33:08.738Z,2.13
2023-03-29T16:35:40.011Z,3.50
2023-03-29T16:38:09.699Z,2.33
2023-03-29T16:40:38.417Z,2.23
2023-03-29T16:43:06.666Z,2.30
2023-03-29T16:45:34.510Z,1.83
2023-03-29T16:48:05.072Z,2.10
2023-03-29T16:50:33.286Z,2.20
2023-03-29T16:53:01.174Z,2.40
2023-03-29T16:55:28.990Z,2.27
2023-03-29T16:57:57.460Z,2.13
2023-03-29T17:00:25.454Z,1.90
2023-03-29T17:02:53.406Z,2.23
2023-03-29T17:05:22.850Z,2.30
2023-03-29T17:07:50.669Z,2.37
2023-03-29T17:10:18.892Z,2.10
2023-03-29T17:12:46.848Z,2.50
2023-03-29T17:15:15.311Z,2.20
2023-03-29T17:17:43.311Z,2.10
2023-03-29T17:20:12.991Z,2.00
2023-03-29T17:22:42.401Z,2.40
2023-03-29T17:25:10.828Z,2.10
2023-03-29T17:27:39.000Z,2.17
2023-03-29T17:30:08.438Z,2.50
2023-03-29T17:32:37.015Z,2.30
2023-03-29T17:35:05.735Z,2.00
2023-03-29T17:37:33.712Z,2.10
2023-03-29T17:40:09.429Z,2.60
2023-03-29T17:42:38.870Z,2.20
2023-03-29T17:45:08.629Z,2.23
2023-03-29T17:47:36.527Z,2.00
2023-03-29T17:50:04.910Z,2.03
2023-03-29T17:52:33.130Z,2.80
2023-03-29T17:55:02.548Z,2.40
2023-03-29T17:57:30.531Z,2.30
2023-03-29T17:59:58.655Z,2.33
2023-03-29T18:02:26.640Z,1.73
2023-03-29T18:04:54.689Z,2.27
2023-03-29T18:07:22.730Z,2.00
2023-03-29T18:09:51.753Z,2.33
2023-03-29T18:12:21.151Z,2.23
2023-03-29T18:14:49.127Z,2.20
2023-03-29T18:17:17.043Z,2.40
2023-03-29T18:19:44.902Z,2.70
2023-03-29T18:22:13.367Z,2.30
2023-03-29T18:24:41.192Z,2.67
2023-03-29T18:27:09.040Z,2.50
2023-03-29T18:29:38.543Z,2.53
2023-03-29T18:32:07.218Z,2.83
2023-03-29T18:34:35.288Z,2.40
2023-03-29T18:37:03.953Z,2.70
2023-03-29T18:39:32.349Z,2.80
2023-03-29T18:42:00.783Z,2.27
2023-03-29T18:44:28.696Z,2.70
2023-03-29T18:46:58.393Z,2.47
2023-03-29T18:49:27.041Z,12.63
2023-03-29T18:51:55.556Z,5.30
2023-03-29T18:54:23.448Z,3.70
2023-03-29T18:56:51.536Z,2.93
2023-03-29T18:59:19.723Z,2.40
2023-03-29T19:01:47.586Z,2.33
2023-03-29T19:04:16.890Z,2.20
2023-03-29T19:06:44.866Z,2.47
2023-03-29T19:09:12.807Z,2.20
2023-03-29T19:11:40.937Z,2.30
2023-03-29T19:14:09.231Z,2.40
2023-03-29T19:16:37.237Z,2.40
2023-03-29T19:19:06.961Z,2.20
2023-03-29T19:21:36.856Z,2.30
2023-03-29T19:24:05.113Z,2.30
2023-03-29T19:26:34.299Z,2.37
2023-03-29T19:29:02.209Z,2.13
2023-03-29T19:31:30.383Z,2.10
2023-03-29T19:33:58.332Z,2.57
2023-03-29T19:36:26.308Z,1.60
2023-03-29T19:38:55.727Z,1.93
2023-03-29T19:41:23.749Z,1.63
2023-03-29T19:43:51.613Z,2.23
2023-03-29T19:46:20.418Z,1.60
2023-03-29T19:48:48.508Z,2.17
2023-03-29T19:51:16.715Z,1.53
2023-03-29T19:53:44.690Z,1.90
2023-03-29T19:56:14.889Z,1.90
2023-03-29T19:58:43.122Z,1.73
2023-03-29T20:01:11.054Z,2.13
2023-03-29T20:03:40.431Z,1.87
2023-03-29T20:06:10.923Z,1.80
2023-03-29T20:08:39.113Z,1.90
2023-03-29T20:11:10.190Z,1.87
2023-03-29T20:13:41.733Z,2.07
2023-03-29T20:16:10.522Z,2.00
2023-03-29T20:18:38.611Z,2.30
2023-03-29T20:21:06.824Z,1.87
2023-03-29T20:23:35.164Z,1.83
2023-03-29T20:26:03.160Z,1.50
2023-03-29T20:28:31.492Z,2.00
2023-03-29T20:31:04.320Z,2.00
2023-03-29T20:33:32.497Z,1.97
2023-03-29T20:36:00.552Z,1.80
2023-03-29T20:38:28.603Z,1.83
2023-03-29T20:40:56.450Z,1.80
2023-03-29T20:43:24.377Z,1.80
2023-03-29T20:45:53.998Z,1.43
2023-03-29T20:48:24.691Z,1.93
2023-03-29T20:50:52.977Z,2.10
2023-03-29T20:53:21.363Z,1.87
2023-03-29T20:55:49.433Z,2.00
2023-03-29T20:58:17.299Z,1.60
2023-03-29T21:00:46.753Z,1.87
2023-03-29T21:03:15.267Z,1.57
2023-03-29T21:05:44.698Z,1.83
2023-03-29T21:08:12.605Z,1.57
2023-03-29T21:10:42.421Z,2.00
2023-03-29T21:13:10.703Z,1.63
2023-03-29T21:15:40.642Z,2.07
2023-03-29T21:18:08.850Z,1.77
2023-03-29T21:20:37.798Z,1.70
2023-03-29T21:23:06.998Z,1.70
2023-03-29T21:25:35.083Z,1.40
2023-03-29T21:28:02.953Z,1.93
2023-03-29T21:30:32.269Z,1.90
2023-03-29T21:33:00.376Z,1.63
2023-03-29T21:35:28.443Z,1.83
2023-03-29T21:37:56.345Z,1.80
2023-03-29T21:40:25.792Z,1.90
2023-03-29T21:42:53.642Z,1.80
2023-03-29T21:45:21.504Z,1.80
2023-03-29T21:47:49.387Z,1.80
2023-03-29T21:50:17.452Z,2.10
2023-03-29T21:52:45.415Z,1.80
2023-03-29T21:55:13.384Z,1.70
2023-03-29T21:57:42.912Z,1.77
2023-03-29T22:00:12.694Z,1.97
2023-03-29T22:02:40.762Z,2.20
2023-03-29T22:05:09.337Z,1.70
2023-03-29T22:07:39.054Z,2.10
2023-03-29T22:10:08.274Z,1.87
2023-03-29T22:12:37.922Z,1.90
2023-03-29T22:15:08.684Z,2.10
2023-03-29T22:17:36.820Z,1.80
2023-03-29T22:20:12.625Z,2.33
2023-03-29T22:22:41.101Z,1.97
2023-03-29T22:25:09.919Z,2.10
2023-03-29T22:27:38.349Z,2.07
2023-03-29T22:30:09.232Z,2.00
2023-03-29T22:32:37.165Z,1.90
2023-03-29T22:35:05.556Z,2.27
2023-03-29T22:37:33.534Z,2.00
2023-03-29T22:40:01.509Z,2.40
2023-03-29T22:42:29.472Z,2.10
2023-03-29T22:44:57.304Z,2.10
2023-03-29T22:47:26.530Z,1.90
2023-03-29T22:49:54.457Z,2.00
2023-03-29T22:52:22.393Z,1.80
2023-03-29T22:54:50.517Z,2.43
2023-03-29T22:57:18.934Z,1.80
2023-03-29T22:59:47.419Z,1.80
2023-03-29T23:02:15.547Z,1.80
2023-03-29T23:04:45.400Z,2.13
2023-03-29T23:07:13.459Z,1.97
2023-03-29T23:09:41.552Z,1.90
2023-03-29T23:12:09.770Z,2.70
2023-03-29T23:14:37.636Z,2.40
2023-03-29T23:17:06.005Z,2.23
2023-03-29T23:19:33.967Z,2.30
2023-03-29T23:22:03.247Z,2.20
2023-03-29T23:24:31.714Z,2.47
2023-03-29T23:27:01.093Z,2.10
2023-03-29T23:29:29.028Z,2.47
2023-03-29T23:31:57.236Z,2.10
2023-03-29T23:34:25.228Z,2.67
2023-03-29T23:36:53.135Z,2.00
2023-03-29T23:39:22.463Z,2.30
2023-03-29T23:41:50.769Z,2.70
2023-03-29T23:44:18.614Z,2.30
2023-03-29T23:46:46.605Z,2.67
2023-03-29T23:49:14.708Z,2.37
2023-03-29T23:51:44.999Z,2.17
2023-03-29T23:54:13.037Z,2.10
2023-03-29T23:56:42.268Z,2.93
2023-03-29T23:59:10.288Z,2.70
